Time;durP1;ratioP1;P1;durP2;ratioP2;P2;SDS_P1;SDS_P2;PMS_P1;PMS_P2;Temp;Humidity;BMP_temperature;BMP_pressure;BME280_temperature;BME280_humidity;BME280_pressure;Samples;Min_cycle;Max_cycle;Signal;HPM_P1;HPM_P2
2022/11/22 00:01:13;;;;;;;56.90;30.73;;;3.40;93.60;;;;;;5017878;28;20398;-72
2022/11/22 00:03:38;;;;;;;51.42;28.55;;;3.40;93.50;;;;;;5017822;28;20818;-72
2022/11/22 00:06:04;;;;;;;58.47;31.40;;;3.40;93.50;;;;;;5017772;28;20982;-72
2022/11/22 00:08:30;;;;;;;50.90;28.60;;;3.40;93.60;;;;;;5034223;28;20401;-73
2022/11/22 00:10:55;;;;;;;47.50;28.97;;;3.40;93.60;;;;;;5034181;28;20575;-72
2022/11/22 00:13:21;;;;;;;49.20;27.90;;;3.40;93.40;;;;;;5034075;28;20467;-72
2022/11/22 00:16:00;;;;;;;47.72;27.73;;;3.40;93.50;;;;;;5017720;28;20499;-73
2022/11/22 00:18:27;;;;;;;46.72;26.50;;;3.40;93.60;;;;;;5034069;28;20407;-73
2022/11/22 00:20:52;;;;;;;45.85;27.48;;;3.40;93.60;;;;;;5034019;28;20447;-72
2022/11/22 00:23:18;;;;;;;40.20;24.57;;;3.40;93.50;;;;;;5034046;28;20404;-72
2022/11/22 00:25:44;;;;;;;51.07;28.87;;;3.40;93.60;;;;;;5034222;28;20405;-72
2022/11/22 00:28:09;;;;;;;47.40;28.15;;;3.40;93.60;;;;;;5017326;28;20481;-72
2022/11/22 00:30:35;;;;;;;51.63;28.30;;;3.40;93.60;;;;;;5033915;28;20484;-73
2022/11/22 00:33:00;;;;;;;46.40;28.13;;;3.40;93.60;;;;;;5033970;28;20850;-73
2022/11/22 00:35:26;;;;;;;59.63;31.83;;;3.40;93.60;;;;;;5033895;28;20496;-72
2022/11/22 00:37:51;;;;;;;55.77;30.17;;;3.40;93.60;;;;;;5034083;28;20492;-72
2022/11/22 00:40:17;;;;;;;52.50;29.87;;;3.30;93.50;;;;;;5033842;28;20480;-73
2022/11/22 00:42:42;;;;;;;61.67;32.00;;;3.20;93.60;;;;;;5033791;28;20447;-72
2022/11/22 00:45:08;;;;;;;52.83;29.13;;;3.20;93.70;;;;;;5034020;28;20405;-73
2022/11/22 00:47:34;;;;;;;53.08;30.80;;;3.10;93.70;;;;;;5033684;28;20405;-72
2022/11/22 00:49:59;;;;;;;54.70;30.77;;;3.10;93.80;;;;;;5033736;28;20400;-72
2022/11/22 00:52:25;;;;;;;47.87;28.03;;;3.10;93.90;;;;;;5033646;28;20457;-73
2022/11/22 00:54:50;;;;;;;46.08;27.95;;;3.10;93.80;;;;;;5033638;28;20836;-74
2022/11/22 00:57:16;;;;;;;51.60;30.87;;;3.10;93.90;;;;;;5018564;28;20987;-73
2022/11/22 00:59:41;;;;;;;57.45;31.73;;;3.10;93.70;;;;;;5033714;28;20433;-72
2022/11/22 01:02:07;;;;;;;49.23;29.37;;;3.10;93.80;;;;;;5033610;28;20397;-72
2022/11/22 01:04:33;;;;;;;56.30;30.90;;;3.00;93.80;;;;;;5033527;28;20394;-72
2022/11/22 01:06:58;;;;;;;48.40;28.05;;;3.00;93.90;;;;;;5017074;28;20430;-72
2022/11/22 01:09:24;;;;;;;55.23;31.83;;;3.00;93.90;;;;;;5017113;28;20399;-72
2022/11/22 01:11:49;;;;;;;53.55;29.48;;;3.00;94.20;;;;;;5033480;28;20412;-73
2022/11/22 01:14:16;;;;;;;58.65;30.52;;;3.00;93.90;;;;;;5033348;28;20512;-72
2022/11/22 01:16:42;;;;;;;51.75;29.20;;;3.00;94.00;;;;;;5033658;28;20813;-72
2022/11/22 01:19:08;;;;;;;58.93;31.80;;;3.00;93.90;;;;;;5033429;28;20401;-73
2022/11/22 01:21:34;;;;;;;59.47;32.03;;;3.00;94.00;;;;;;5033343;28;20398;-72
2022/11/22 01:23:59;;;;;;;55.87;30.70;;;3.00;94.00;;;;;;5033425;28;20402;-73
2022/11/22 01:26:25;;;;;;;65.57;33.42;;;2.90;93.90;;;;;;5033517;28;20401;-72
2022/11/22 01:28:50;;;;;;;62.95;32.53;;;3.00;94.10;;;;;;5033323;28;20414;-73
2022/11/22 01:31:16;;;;;;;55.13;28.93;;;3.00;94.10;;;;;;5033354;28;20405;-73
2022/11/22 01:33:41;;;;;;;65.28;34.33;;;2.90;94.00;;;;;;5017078;28;20428;-73
2022/11/22 01:36:07;;;;;;;58.97;31.07;;;3.00;94.10;;;;;;5017594;28;20398;-73
2022/11/22 01:38:33;;;;;;;64.35;34.38;;;3.00;94.20;;;;;;5033504;28;20408;-73
2022/11/22 01:40:58;;;;;;;58.17;30.92;;;3.00;94.20;;;;;;5035917;28;20397;-72
2022/11/22 01:43:27;;;;;;;64.20;33.43;;;3.00;94.20;;;;;;5020360;28;20405;-72
2022/11/22 01:45:57;;;;;;;65.35;33.40;;;3.00;94.20;;;;;;5036778;28;20397;-74
2022/11/22 01:48:25;;;;;;;70.35;34.97;;;3.00;94.30;;;;;;5020393;28;20761;-72
2022/11/22 01:51:08;;;;;;;68.37;33.73;;;3.00;94.20;;;;;;5036643;28;20420;-73
2022/11/22 01:53:36;;;;;;;61.95;32.78;;;3.00;94.20;;;;;;5020155;28;20421;-73
2022/11/22 01:56:06;;;;;;;64.15;33.35;;;3.10;94.20;;;;;;5036444;28;20393;-72
2022/11/22 01:58:34;;;;;;;76.05;36.70;;;3.10;94.60;;;;;;5020020;28;20401;-72
2022/11/22 02:01:00;;;;;;;68.53;34.80;;;3.10;94.20;;;;;;5020246;28;20488;-74
2022/11/22 02:03:28;;;;;;;76.10;36.83;;;3.10;94.20;;;;;;5036688;28;20500;-72
2022/11/22 02:05:55;;;;;;;72.95;36.20;;;3.10;94.30;;;;;;5020464;28;20405;-72
2022/11/22 02:08:54;;;;;;;64.38;34.17;;;3.10;94.20;;;;;;5036273;28;20408;-73
2022/11/22 02:11:21;;;;;;;70.43;36.60;;;3.10;94.30;;;;;;5035729;28;20490;-72
2022/11/22 02:13:48;;;;;;;61.10;32.85;;;3.20;94.20;;;;;;5036199;28;20425;-72
2022/11/22 02:16:14;;;;;;;73.53;36.42;;;3.20;94.20;;;;;;5019598;28;20397;-71
2022/11/22 02:18:40;;;;;;;64.97;35.13;;;3.20;94.20;;;;;;5036414;28;20949;-71
2022/11/22 02:21:07;;;;;;;62.00;33.65;;;3.20;94.30;;;;;;5036373;28;20423;-72
2022/11/22 02:23:56;;;;;;;72.07;36.80;;;3.20;94.20;;;;;;5036017;28;20974;-71
2022/11/22 02:26:28;;;;;;;72.85;36.45;;;3.20;94.30;;;;;;5036005;28;20459;-71
2022/11/22 02:28:58;;;;;;;69.88;35.75;;;3.20;94.20;;;;;;5019754;28;20409;-71
2022/11/22 02:31:39;;;;;;;73.20;36.50;;;3.30;94.20;;;;;;5035957;28;20432;-72
2022/11/22 02:34:05;;;;;;;73.53;36.22;;;3.30;94.20;;;;;;5035861;28;20540;-71
2022/11/22 02:36:36;;;;;;;80.93;38.50;;;3.30;94.30;;;;;;5035790;28;20967;-72
2022/11/22 02:39:02;;;;;;;74.45;37.08;;;3.30;94.30;;;;;;5019692;28;20433;-72
2022/11/22 02:41:28;;;;;;;75.43;37.40;;;3.30;94.30;;;;;;5019479;28;20438;-71
2022/11/22 02:43:53;;;;;;;61.45;35.08;;;3.30;94.20;;;;;;5019133;28;20401;-72
2022/11/22 02:46:22;;;;;;;58.47;31.90;;;3.30;94.20;;;;;;5035611;28;20397;-73
2022/11/22 02:48:48;;;;;;;59.47;34.92;;;3.30;94.20;;;;;;5035616;28;20504;-72
2022/11/22 02:51:15;;;;;;;70.57;36.45;;;3.40;94.20;;;;;;5035880;28;20409;-72
2022/11/22 02:53:46;;;;;;;64.68;36.20;;;3.40;94.20;;;;;;5035392;28;20425;-72
2022/11/22 02:56:12;;;;;;;59.08;33.10;;;3.40;94.20;;;;;;5035389;28;20393;-73
2022/11/22 02:58:38;;;;;;;68.65;35.58;;;3.40;94.20;;;;;;5035421;28;20397;-73
2022/11/22 03:01:03;;;;;;;62.20;35.35;;;3.40;94.20;;;;;;5035394;28;20897;-72
2022/11/22 03:03:30;;;;;;;69.43;35.97;;;3.40;94.30;;;;;;5018859;28;20455;-72
2022/11/22 03:05:55;;;;;;;67.45;36.55;;;3.50;94.20;;;;;;5035315;28;20401;-72
2022/11/22 03:08:21;;;;;;;73.50;36.67;;;3.50;94.20;;;;;;5018754;28;20503;-72
2022/11/22 03:10:46;;;;;;;64.70;36.57;;;3.50;94.20;;;;;;5035481;28;20774;-72
2022/11/22 03:13:12;;;;;;;73.15;37.42;;;3.60;94.10;;;;;;5035112;28;20548;-73
2022/11/22 03:15:37;;;;;;;70.27;36.87;;;3.50;94.20;;;;;;5018639;28;20401;-72
2022/11/22 03:18:03;;;;;;;66.72;35.70;;;3.60;94.20;;;;;;5035034;28;20419;-73
2022/11/22 03:20:29;;;;;;;69.20;36.47;;;3.60;94.20;;;;;;5018554;28;20401;-73
2022/11/22 03:22:55;;;;;;;72.30;37.25;;;3.60;94.20;;;;;;5035219;28;20959;-73
2022/11/22 03:25:21;;;;;;;69.97;37.53;;;3.60;94.20;;;;;;5018732;28;20405;-73
2022/11/22 03:27:47;;;;;;;57.97;33.50;;;3.60;94.30;;;;;;5034777;28;20468;-72
2022/11/22 03:30:13;;;;;;;63.67;34.53;;;3.60;94.20;;;;;;5034867;28;20474;-72
2022/11/22 03:32:39;;;;;;;56.58;32.90;;;3.70;94.20;;;;;;5035100;28;20432;-73
2022/11/22 03:35:05;;;;;;;63.75;34.90;;;3.70;94.10;;;;;;5035249;28;20493;-73
2022/11/22 03:37:30;;;;;;;72.03;37.63;;;3.60;94.10;;;;;;5018500;28;20397;-73
2022/11/22 03:39:56;;;;;;;61.43;35.63;;;3.70;94.20;;;;;;5018241;28;20839;-73
2022/11/22 03:42:22;;;;;;;70.40;37.33;;;3.60;94.20;;;;;;5034651;28;20488;-73
2022/11/22 03:44:47;;;;;;;63.80;35.00;;;3.70;94.30;;;;;;5018338;28;20405;-74
2022/11/22 03:47:13;;;;;;;68.90;36.23;;;3.70;94.30;;;;;;5034770;28;20440;-73
2022/11/22 03:49:38;;;;;;;59.63;32.07;;;3.70;94.30;;;;;;5034506;28;20501;-73
2022/11/22 03:52:04;;;;;;;63.93;35.07;;;3.70;94.30;;;;;;5034424;28;20402;-73
2022/11/22 03:54:30;;;;;;;58.00;34.27;;;3.70;94.20;;;;;;5017942;28;20401;-73
2022/11/22 03:56:55;;;;;;;66.20;35.73;;;3.80;94.20;;;;;;5018183;28;20490;-73
2022/11/22 03:59:21;;;;;;;76.47;37.55;;;3.80;94.20;;;;;;5034582;28;20397;-73
2022/11/22 04:01:46;;;;;;;69.43;36.43;;;3.80;94.20;;;;;;5034322;28;20476;-73
2022/11/22 04:04:12;;;;;;;71.72;36.15;;;3.90;94.20;;;;;;5033882;28;20504;-73
2022/11/22 04:06:38;;;;;;;66.07;34.70;;;3.90;94.30;;;;;;5034173;28;20425;-74
2022/11/22 04:09:04;;;;;;;77.78;37.78;;;3.80;94.30;;;;;;5018026;28;20808;-73
2022/11/22 04:11:29;;;;;;;69.45;37.63;;;3.90;94.30;;;;;;5034094;28;20397;-73
2022/11/22 04:16:39;;;;;;;58.50;32.88;;;3.90;94.30;;;;;;5033894;28;20394;-73
2022/11/22 04:19:05;;;;;;;54.60;32.07;;;4.00;94.30;;;;;;5034289;28;20393;-73
2022/11/22 04:21:33;;;;;;;65.93;34.90;;;4.00;94.20;;;;;;5034039;28;20397;-73
2022/11/22 04:26:55;;;;;;;66.63;36.30;;;4.10;94.20;;;;;;5033750;28;20801;-73
2022/11/22 04:29:21;;;;;;;65.10;35.08;;;4.10;94.20;;;;;;5033886;28;20484;-73
2022/11/22 04:34:33;;;;;;;54.97;33.00;;;4.10;94.20;;;;;;5033940;28;20409;-73
2022/11/22 04:36:59;;;;;;;60.38;34.17;;;4.20;94.10;;;;;;5033748;28;20472;-73
2022/11/22 04:39:25;;;;;;;50.45;32.15;;;4.10;94.10;;;;;;5017228;28;20432;-73
2022/11/22 04:44:39;;;;;;;62.38;34.75;;;4.20;94.10;;;;;;5033648;28;20885;-73
2022/11/22 04:47:05;;;;;;;60.25;34.33;;;4.20;94.10;;;;;;5017627;28;20439;-73
2022/11/22 04:49:31;;;;;;;67.43;35.70;;;4.20;94.00;;;;;;5017409;28;20401;-73
2022/11/22 04:54:40;;;;;;;54.92;33.30;;;4.30;94.10;;;;;;5033561;28;20402;-74
2022/11/22 04:57:06;;;;;;;55.43;32.40;;;4.30;94.10;;;;;;5017219;28;20901;-73
2022/11/22 04:59:31;;;;;;;53.13;32.33;;;4.30;94.10;;;;;;5033617;28;20401;-74
2022/11/22 05:01:57;;;;;;;57.47;33.30;;;4.30;94.10;;;;;;5033625;28;20401;-73
2022/11/22 05:04:22;;;;;;;56.03;33.20;;;4.30;94.10;;;;;;5033562;28;20397;-74
2022/11/22 05:06:48;;;;;;;61.05;34.25;;;4.30;94.00;;;;;;5033739;28;20869;-73
2022/11/22 05:09:14;;;;;;;58.43;33.90;;;4.40;94.20;;;;;;5033523;28;20404;-74
2022/11/22 05:11:39;;;;;;;61.63;34.73;;;4.40;94.10;;;;;;5033561;28;20390;-73
2022/11/22 05:14:05;;;;;;;60.78;33.22;;;4.40;94.10;;;;;;5033451;28;20424;-73
2022/11/22 05:16:30;;;;;;;60.73;33.90;;;4.40;94.10;;;;;;5036803;28;20404;-74
2022/11/22 05:18:59;;;;;;;51.30;31.83;;;4.40;94.10;;;;;;5037565;28;20489;-75
2022/11/22 05:21:26;;;;;;;52.17;32.97;;;4.50;94.10;;;;;;5021016;28;20412;-74
2022/11/22 05:23:55;;;;;;;53.95;33.95;;;4.50;94.10;;;;;;5037508;28;20757;-74
2022/11/22 05:26:26;;;;;;;51.87;33.03;;;4.50;94.10;;;;;;5037090;28;20393;-74
2022/11/22 05:28:51;;;;;;;56.65;33.30;;;4.50;94.00;;;;;;5037142;28;20917;-74
2022/11/22 05:31:23;;;;;;;62.30;35.93;;;4.50;94.00;;;;;;5037073;28;20409;-74
2022/11/22 05:33:50;;;;;;;57.17;35.05;;;4.50;94.10;;;;;;5036807;28;20479;-74
2022/11/22 05:36:16;;;;;;;58.08;34.92;;;4.60;94.20;;;;;;5020408;28;20409;-74
2022/11/22 05:38:42;;;;;;;57.47;35.50;;;4.60;94.20;;;;;;5020395;28;20458;-74
2022/11/22 05:41:10;;;;;;;56.07;34.57;;;4.70;94.20;;;;;;5020366;28;20778;-74
2022/11/22 05:43:36;;;;;;;55.63;33.47;;;4.70;94.00;;;;;;5037086;28;20940;-74
2022/11/22 05:46:19;;;;;;;55.72;34.15;;;4.70;94.00;;;;;;5036713;28;20401;-74
2022/11/22 05:48:46;;;;;;;57.45;34.60;;;4.70;94.10;;;;;;5020251;28;20897;-74
2022/11/22 05:51:14;;;;;;;60.92;36.03;;;4.70;94.10;;;;;;5036729;28;20522;-74
2022/11/22 05:53:41;;;;;;;58.65;34.33;;;4.70;94.20;;;;;;5036499;28;20425;-74
2022/11/22 05:56:16;;;;;;;53.45;33.35;;;4.70;94.10;;;;;;5020022;28;20398;-75
2022/11/22 05:58:42;;;;;;;54.72;34.05;;;4.70;94.10;;;;;;5020899;28;20800;-74
2022/11/22 06:01:26;;;;;;;67.50;36.72;;;4.80;94.00;;;;;;5036751;28;20447;-74
2022/11/22 06:03:52;;;;;;;71.53;37.92;;;4.80;94.10;;;;;;5037808;28;20479;-74
2022/11/22 06:06:18;;;;;;;65.53;36.42;;;4.80;94.10;;;;;;5036584;28;20409;-74
2022/11/22 06:08:46;;;;;;;61.30;34.60;;;4.80;94.40;;;;;;5036289;28;20416;-74
2022/11/22 06:11:18;;;;;;;53.67;33.83;;;4.80;94.10;;;;;;5036413;28;20405;-74
2022/11/22 06:13:45;;;;;;;67.07;37.83;;;4.80;94.10;;;;;;5019717;28;20429;-75
2022/11/22 06:16:11;;;;;;;61.55;34.47;;;4.90;94.20;;;;;;5036163;28;20402;-74
2022/11/22 06:18:37;;;;;;;65.27;36.50;;;4.90;94.10;;;;;;5020218;28;20436;-74
2022/11/22 06:21:06;;;;;;;58.43;35.13;;;4.90;94.10;;;;;;5019641;28;20401;-75
2022/11/22 06:23:32;;;;;;;49.35;31.95;;;4.90;94.10;;;;;;5036261;28;20409;-75
2022/11/22 06:26:06;;;;;;;60.22;33.70;;;5.00;94.10;;;;;;5035736;28;20480;-75
2022/11/22 06:28:33;;;;;;;60.00;34.33;;;4.90;94.40;;;;;;5035996;28;20405;-75
2022/11/22 06:31:04;;;;;;;64.23;36.03;;;5.00;94.10;;;;;;5035962;28;20532;-75
2022/11/22 06:33:30;;;;;;;57.40;33.88;;;5.00;94.20;;;;;;5019307;28;20433;-75
2022/11/22 06:36:08;;;;;;;60.90;35.58;;;5.00;94.20;;;;;;5036139;28;20480;-75
2022/11/22 06:38:34;;;;;;;59.78;33.80;;;5.00;94.20;;;;;;5019634;28;20406;-75
2022/11/22 06:41:01;;;;;;;58.22;33.83;;;5.00;94.20;;;;;;5019512;28;20450;-75
2022/11/22 06:43:30;;;;;;;50.60;30.98;;;5.10;94.20;;;;;;5036004;28;20773;-75
2022/11/22 06:46:01;;;;;;;58.92;34.08;;;5.10;94.20;;;;;;5035670;28;20405;-75
2022/11/22 06:48:32;;;;;;;63.75;34.92;;;5.10;94.20;;;;;;5035848;28;20397;-75
2022/11/22 06:51:05;;;;;;;59.55;34.95;;;5.10;94.10;;;;;;5035536;28;20412;-75
2022/11/22 06:53:33;;;;;;;59.80;34.88;;;5.10;94.10;;;;;;5035538;28;20429;-75
2022/11/22 06:56:16;;;;;;;56.33;33.65;;;5.10;94.10;;;;;;5018925;28;20401;-75
2022/11/22 06:58:44;;;;;;;59.13;34.22;;;5.00;94.00;;;;;;5035387;28;20469;-75
2022/11/22 07:01:15;;;;;;;65.00;37.50;;;5.00;94.00;;;;;;5018939;28;20422;-75
2022/11/22 07:03:41;;;;;;;55.25;32.67;;;5.00;94.10;;;;;;5035523;28;20409;-75
2022/11/22 07:06:09;;;;;;;62.90;35.67;;;5.00;94.10;;;;;;5035368;28;20455;-75
2022/11/22 07:08:35;;;;;;;66.63;35.83;;;5.00;94.20;;;;;;5018985;28;20894;-75
2022/11/22 07:11:02;;;;;;;63.72;35.47;;;5.10;94.30;;;;;;5035430;28;20410;-75
2022/11/22 07:13:27;;;;;;;66.95;36.05;;;5.10;94.40;;;;;;5035309;28;20928;-75
2022/11/22 07:15:58;;;;;;;65.97;35.10;;;5.10;94.40;;;;;;5035354;28;20401;-75
2022/11/22 07:18:24;;;;;;;61.20;34.10;;;5.10;94.40;;;;;;5034902;28;20397;-75
2022/11/22 07:20:50;;;;;;;52.08;31.17;;;5.20;94.50;;;;;;5018600;28;20397;-75
2022/11/22 07:23:16;;;;;;;56.67;32.35;;;5.20;94.40;;;;;;5018746;28;20444;-75
2022/11/22 07:25:46;;;;;;;57.88;32.17;;;5.30;94.50;;;;;;5035235;28;20415;-75
2022/11/22 07:28:13;;;;;;;64.70;33.30;;;5.30;94.50;;;;;;5034853;28;20401;-75
2022/11/22 07:30:40;;;;;;;50.75;28.98;;;5.40;94.40;;;;;;5034921;28;20480;-75
2022/11/22 07:33:05;;;;;;;48.45;26.85;;;5.40;94.40;;;;;;5018190;28;20421;-75
2022/11/22 07:35:31;;;;;;;38.53;26.20;;;5.50;94.30;;;;;;5034846;28;20932;-75
2022/11/22 07:37:57;;;;;;;36.97;24.00;;;5.50;94.20;;;;;;5013902;28;20480;-76
2022/11/22 07:40:22;;;;;;;40.50;26.60;;;5.50;94.20;;;;;;4998396;28;20414;-76
2022/11/22 07:42:48;;;;;;;36.83;24.67;;;5.60;94.20;;;;;;5031410;28;20415;-75
2022/11/22 07:45:13;;;;;;;31.00;19.13;;;5.60;94.20;;;;;;5031428;28;20442;-76
2022/11/22 07:47:39;;;;;;;31.98;18.77;;;5.70;94.20;;;;;;5039579;28;20501;-76
2022/11/22 07:50:05;;;;;;;27.47;16.60;;;5.80;94.10;;;;;;5034827;28;20897;-76
2022/11/22 07:52:31;;;;;;;27.80;16.63;;;5.80;94.00;;;;;;5029076;28;20926;-76
2022/11/22 07:54:57;;;;;;;23.67;14.40;;;5.90;93.90;;;;;;4998452;28;20478;-76
2022/11/22 07:57:22;;;;;;;25.20;13.18;;;6.00;93.70;;;;;;5014705;28;20490;-76
2022/11/22 07:59:48;;;;;;;20.92;12.07;;;6.10;93.60;;;;;;5014294;28;20395;-76
2022/11/22 08:02:13;;;;;;;23.47;11.90;;;6.10;93.40;;;;;;5018111;28;20401;-76
2022/11/22 08:04:39;;;;;;;19.90;10.82;;;6.10;93.20;;;;;;5034454;28;20739;-77
2022/11/22 08:07:04;;;;;;;18.43;10.50;;;6.10;93.10;;;;;;5034484;28;20436;-76
2022/11/22 08:09:30;;;;;;;21.17;10.47;;;6.10;93.00;;;;;;5023808;28;20428;-75
2022/11/22 08:11:56;;;;;;;16.75;9.95;;;6.20;92.90;;;;;;5034308;28;20421;-75
2022/11/22 08:14:22;;;;;;;22.13;10.33;;;6.20;92.90;;;;;;5034182;28;20475;-76
2022/11/22 08:16:47;;;;;;;19.50;9.40;;;6.20;92.90;;;;;;5032847;28;20471;-76
2022/11/22 08:19:16;;;;;;;15.77;9.65;;;6.20;92.80;;;;;;5033133;28;20413;-76
2022/11/22 08:21:43;;;;;;;18.38;9.13;;;6.20;92.80;;;;;;5017021;28;20824;-75
2022/11/22 08:24:08;;;;;;;19.88;9.43;;;6.20;92.70;;;;;;5003305;28;20941;-75
2022/11/22 08:26:34;;;;;;;18.90;9.23;;;6.30;92.70;;;;;;5014272;28;20478;-75
2022/11/22 08:29:04;;;;;;;18.05;8.50;;;6.30;92.70;;;;;;5014166;28;20445;-75
2022/11/22 08:31:29;;;;;;;15.73;8.93;;;6.30;92.50;;;;;;5028119;28;20783;-75
2022/11/22 08:33:55;;;;;;;17.73;8.97;;;6.30;92.30;;;;;;5027121;28;20429;-75
2022/11/22 08:36:21;;;;;;;20.33;8.55;;;6.40;92.40;;;;;;4994748;28;20393;-75
2022/11/22 08:38:46;;;;;;;15.85;7.78;;;6.40;92.30;;;;;;5018660;28;20457;-75
2022/11/22 08:41:12;;;;;;;21.30;7.43;;;6.50;92.00;;;;;;5042506;28;20777;-75
2022/11/22 08:43:38;;;;;;;15.70;6.47;;;6.50;91.80;;;;;;5034396;28;20852;-75
2022/11/22 08:46:03;;;;;;;18.73;7.32;;;6.60;91.60;;;;;;5033824;28;20402;-75
2022/11/22 08:48:32;;;;;;;17.63;6.50;;;6.60;91.50;;;;;;5032579;28;20417;-76
2022/11/22 08:51:01;;;;;;;14.50;6.97;;;6.50;91.60;;;;;;5056010;28;20397;-76
2022/11/22 08:53:28;;;;;;;14.63;6.50;;;6.50;91.70;;;;;;5049623;28;20469;-75
2022/11/22 08:55:54;;;;;;;15.90;6.00;;;6.60;91.60;;;;;;5051384;28;20489;-75
2022/11/22 08:58:21;;;;;;;15.48;5.93;;;6.50;91.70;;;;;;5052008;28;20403;-75
2022/11/22 09:00:46;;;;;;;18.08;6.68;;;6.40;91.70;;;;;;5017446;28;20820;-76
2022/11/22 09:03:12;;;;;;;14.70;6.43;;;6.50;91.80;;;;;;5035098;28;20428;-75
2022/11/22 09:05:37;;;;;;;17.23;6.10;;;6.40;91.70;;;;;;5038022;28;20454;-75
2022/11/22 09:08:03;;;;;;;15.30;5.82;;;6.40;91.80;;;;;;5021370;28;20435;-75
2022/11/22 09:10:29;;;;;;;14.02;5.53;;;6.40;91.60;;;;;;5018462;28;20509;-75
2022/11/22 09:12:55;;;;;;;16.43;5.50;;;6.40;91.80;;;;;;5017699;28;20430;-74
2022/11/22 09:15:20;;;;;;;12.67;4.53;;;6.50;91.80;;;;;;5017757;28;20403;-75
2022/11/22 09:17:46;;;;;;;15.20;4.88;;;6.50;91.80;;;;;;5001299;28;20399;-75
2022/11/22 09:20:12;;;;;;;14.07;5.35;;;6.50;91.50;;;;;;5014113;28;20409;-74
2022/11/22 09:22:38;;;;;;;14.37;4.53;;;6.50;91.60;;;;;;5037383;28;20484;-74
2022/11/22 09:25:05;;;;;;;13.57;4.60;;;6.50;91.30;;;;;;5023361;28;20418;-74
2022/11/22 09:27:31;;;;;;;10.50;4.45;;;6.50;91.30;;;;;;5050454;28;20898;-74
2022/11/22 09:29:57;;;;;;;12.52;4.38;;;6.50;91.20;;;;;;5033407;28;20471;-74
2022/11/22 09:32:23;;;;;;;15.10;5.35;;;6.50;91.20;;;;;;5017218;28;20510;-74
2022/11/22 09:34:49;;;;;;;15.20;5.93;;;6.50;91.00;;;;;;5017618;28;20779;-73
2022/11/22 09:37:17;;;;;;;7.87;4.33;;;6.40;91.10;;;;;;5017263;28;20401;-73
2022/11/22 09:39:43;;;;;;;11.43;5.10;;;6.40;91.10;;;;;;5000136;28;20458;-72
2022/11/22 09:42:22;;;;;;;12.07;5.32;;;6.40;90.90;;;;;;5050602;28;20921;-72
2022/11/22 09:45:26;;;;;;;8.85;3.75;;;6.40;91.10;;;;;;5050881;28;20395;-73
2022/11/22 09:48:01;;;;;;;10.32;4.55;;;6.30;90.70;;;;;;5043517;28;20434;-73
2022/11/22 09:50:33;;;;;;;10.40;4.38;;;6.40;90.80;;;;;;5047167;28;20421;-73
2022/11/22 09:53:12;;;;;;;9.18;3.88;;;6.40;90.80;;;;;;5016397;28;20478;-72
2022/11/22 09:55:45;;;;;;;12.18;4.10;;;6.40;90.60;;;;;;5027703;28;21035;-72
2022/11/22 09:58:45;;;;;;;8.20;3.28;;;6.40;90.60;;;;;;5028594;28;20453;-73
2022/11/22 10:01:15;;;;;;;9.40;2.97;;;6.50;90.40;;;;;;5043289;28;20407;-73
2022/11/22 10:03:52;;;;;;;8.02;3.50;;;6.40;90.30;;;;;;5031809;28;20421;-72
2022/11/22 10:06:30;;;;;;;8.18;2.80;;;6.40;90.50;;;;;;5029219;28;20498;-72
2022/11/22 10:09:04;;;;;;;10.07;2.67;;;6.40;90.10;;;;;;5015783;28;20407;-73
2022/11/22 10:11:52;;;;;;;9.02;2.75;;;6.40;90.20;;;;;;5019919;28;20401;-73
2022/11/22 10:14:38;;;;;;;9.13;2.60;;;6.40;90.10;;;;;;5013367;28;20424;-72
2022/11/22 10:17:34;;;;;;;8.60;2.50;;;6.40;90.20;;;;;;5028589;28;20417;-73
2022/11/22 10:20:28;;;;;;;7.93;2.70;;;6.50;90.00;;;;;;5048212;28;20418;-73
2022/11/22 10:22:54;;;;;;;10.00;2.57;;;6.60;89.60;;;;;;5034829;28;20410;-72
2022/11/22 10:25:41;;;;;;;11.25;2.53;;;6.70;89.90;;;;;;5034431;28;20811;-72
2022/11/22 10:28:17;;;;;;;11.95;2.75;;;6.70;89.20;;;;;;5019746;28;20904;-72
2022/11/22 10:30:57;;;;;;;8.73;1.63;;;6.80;89.80;;;;;;5020938;28;20427;-73
2022/11/22 10:33:33;;;;;;;9.85;2.25;;;6.80;88.30;;;;;;5016255;28;20836;-73
2022/11/22 10:36:23;;;;;;;7.10;1.85;;;6.90;88.70;;;;;;5049342;28;20403;-73
2022/11/22 10:39:34;;;;;;;9.40;1.70;;;6.90;88.40;;;;;;5033077;28;20451;-73
2022/11/22 10:42:18;;;;;;;7.65;1.60;;;6.90;88.10;;;;;;5030653;28;21218;-73
2022/11/22 10:44:49;;;;;;;7.47;2.05;;;7.10;88.80;;;;;;5037716;28;20490;-73
2022/11/22 10:47:38;;;;;;;7.60;1.50;;;7.30;87.90;;;;;;5047855;28;20413;-73
2022/11/22 10:50:30;;;;;;;6.43;1.80;;;7.50;86.50;;;;;;5012800;28;20404;-73
2022/11/22 10:53:09;;;;;;;6.67;1.93;;;7.70;85.90;;;;;;5050093;28;21016;-73
2022/11/22 10:55:40;;;;;;;9.83;1.70;;;7.80;85.10;;;;;;5029893;28;20496;-73
2022/11/22 10:58:28;;;;;;;8.48;1.50;;;7.70;83.90;;;;;;5033897;28;20908;-73
2022/11/22 11:01:14;;;;;;;7.15;1.55;;;7.60;84.90;;;;;;5034444;28;20470;-73
2022/11/22 11:03:43;;;;;;;9.52;1.90;;;7.50;85.10;;;;;;5009917;28;20966;-73
2022/11/22 11:06:25;;;;;;;5.80;1.20;;;7.50;85.50;;;;;;5048742;28;20477;-73
2022/11/22 11:08:57;;;;;;;7.60;1.58;;;7.50;86.10;;;;;;5018945;28;20407;-72
2022/11/22 11:11:25;;;;;;;7.22;1.35;;;7.50;85.70;;;;;;5014824;28;20430;-73
2022/11/22 11:14:16;;;;;;;5.82;1.40;;;7.40;85.80;;;;;;5025569;28;20425;-73
2022/11/22 11:16:43;;;;;;;9.80;2.20;;;7.40;85.30;;;;;;5045613;28;20787;-73
2022/11/22 11:19:21;;;;;;;7.60;1.90;;;7.40;85.90;;;;;;5015382;28;20463;-72
2022/11/22 11:22:07;;;;;;;6.63;1.40;;;7.40;86.30;;;;;;4996051;28;20797;-72
2022/11/22 11:24:37;;;;;;;8.10;1.40;;;7.40;86.40;;;;;;5033013;28;20433;-73
2022/11/22 11:27:03;;;;;;;5.45;1.23;;;7.40;86.10;;;;;;5049372;28;20423;-73
2022/11/22 11:30:00;;;;;;;7.95;1.35;;;7.50;85.50;;;;;;5035689;28;20499;-73
2022/11/22 11:32:25;;;;;;;8.57;1.65;;;7.60;84.50;;;;;;5031716;28;20445;-72
2022/11/22 11:34:51;;;;;;;7.40;1.00;;;7.60;83.90;;;;;;5031332;28;20798;-72
2022/11/22 11:37:26;;;;;;;7.20;1.33;;;7.60;84.30;;;;;;4997622;28;20870;-72
2022/11/22 11:39:52;;;;;;;6.40;0.93;;;7.50;84.60;;;;;;5048133;28;20925;-73
2022/11/22 11:42:24;;;;;;;6.47;1.58;;;7.50;84.40;;;;;;5048006;28;20415;-72
2022/11/22 11:44:49;;;;;;;8.60;1.50;;;7.60;85.10;;;;;;4995326;28;20408;-72
2022/11/22 11:47:32;;;;;;;6.93;1.23;;;7.70;85.90;;;;;;5028422;28;20827;-72
2022/11/22 11:49:58;;;;;;;8.93;1.50;;;7.80;85.30;;;;;;5033873;28;20422;-72
2022/11/22 11:52:25;;;;;;;7.17;1.60;;;7.90;84.60;;;;;;5031172;28;20399;-72
2022/11/22 11:54:56;;;;;;;8.32;1.30;;;8.00;84.70;;;;;;5031309;28;20395;-73
2022/11/22 11:57:27;;;;;;;7.85;1.10;;;8.20;83.20;;;;;;5046989;28;20407;-72
2022/11/22 11:59:54;;;;;;;7.43;1.60;;;8.20;82.80;;;;;;5048325;28;20407;-73
2022/11/22 12:02:40;;;;;;;7.57;1.17;;;8.30;83.50;;;;;;5014945;28;20413;-72
2022/11/22 12:05:27;;;;;;;5.93;1.00;;;8.40;83.60;;;;;;5014988;28;20406;-72
2022/11/22 12:07:53;;;;;;;8.82;1.60;;;8.70;82.10;;;;;;5013130;28;20574;-72
2022/11/22 12:10:41;;;;;;;6.38;1.20;;;8.80;81.90;;;;;;5024622;28;20510;-73
2022/11/22 12:13:34;;;;;;;6.17;1.00;;;9.20;80.20;;;;;;5027883;28;20504;-72
2022/11/22 12:16:23;;;;;;;5.00;0.93;;;9.30;78.20;;;;;;5043007;28;20460;-73
2022/11/22 12:19:05;;;;;;;6.13;0.87;;;9.10;78.50;;;;;;5017190;28;20499;-72
2022/11/22 12:21:46;;;;;;;6.03;1.05;;;8.80;78.80;;;;;;5006782;28;20944;-72
2022/11/22 12:24:36;;;;;;;6.25;1.30;;;8.60;80.10;;;;;;5040254;28;20744;-72
2022/11/22 12:27:02;;;;;;;7.20;1.02;;;8.40;80.90;;;;;;5008983;28;20937;-73
2022/11/22 12:29:30;;;;;;;7.00;1.10;;;8.40;81.00;;;;;;5047381;28;20403;-72
2022/11/22 12:32:03;;;;;;;6.88;1.20;;;8.30;81.50;;;;;;5014145;28;20414;-72
2022/11/22 12:35:04;;;;;;;7.63;1.30;;;8.20;81.80;;;;;;5029697;28;22241;-72
2022/11/22 12:37:37;;;;;;;5.47;1.10;;;8.10;82.50;;;;;;5010966;28;20439;-72
2022/11/22 12:40:12;;;;;;;6.88;0.80;;;8.00;82.30;;;;;;5027259;28;20404;-72
2022/11/22 12:43:20;;;;;;;5.40;0.75;;;7.90;82.70;;;;;;5046978;28;20413;-73
2022/11/22 12:45:50;;;;;;;6.47;0.90;;;7.90;82.80;;;;;;4974103;28;20435;-72
2022/11/22 12:48:28;;;;;;;6.20;1.00;;;7.90;83.10;;;;;;4993854;28;20463;-72
2022/11/22 12:51:02;;;;;;;5.17;0.80;;;7.90;83.20;;;;;;5006270;28;20438;-72
2022/11/22 12:53:36;;;;;;;6.28;1.08;;;7.80;83.40;;;;;;5046787;28;20570;-72
2022/11/22 12:56:10;;;;;;;7.32;0.80;;;7.80;83.10;;;;;;5018711;28;20450;-72
2022/11/22 12:59:14;;;;;;;5.35;1.00;;;7.80;82.60;;;;;;5014082;28;20399;-72
2022/11/22 13:01:40;;;;;;;7.60;0.90;;;7.80;83.00;;;;;;5046219;28;20419;-72
2022/11/22 13:04:08;;;;;;;8.52;1.33;;;7.90;82.30;;;;;;5047307;28;20466;-72
2022/11/22 13:06:55;;;;;;;6.72;1.00;;;7.90;82.70;;;;;;5047236;28;20805;-72
2022/11/22 13:09:27;;;;;;;5.72;0.88;;;7.90;83.10;;;;;;5046989;28;20468;-72
2022/11/22 13:12:10;;;;;;;6.85;0.85;;;7.90;82.90;;;;;;5047159;28;20415;-72